createdAt,value
2022-11-27T00:00:48.213Z,5.37
2022-11-27T00:03:15.139Z,4.77
2022-11-27T00:05:50.560Z,5.63
2022-11-27T00:08:17.423Z,5.67
2022-11-27T00:10:44.308Z,5.47
2022-11-27T00:13:12.146Z,5.17
2022-11-27T00:15:40.095Z,5.33
2022-11-27T00:18:06.953Z,5.10
2022-11-27T00:20:33.807Z,5.10
2022-11-27T00:23:00.774Z,5.37
2022-11-27T00:25:29.667Z,4.93
2022-11-27T00:27:57.590Z,5.57
2022-11-27T00:30:24.459Z,5.30
2022-11-27T00:32:51.291Z,5.13
2022-11-27T00:35:18.200Z,5.73
2022-11-27T00:37:45.040Z,5.70
2022-11-27T00:40:12.673Z,5.40
2022-11-27T00:42:39.578Z,5.80
2022-11-27T00:45:06.983Z,5.57
2022-11-27T00:47:33.860Z,6.23
2022-11-27T00:50:00.734Z,5.73
2022-11-27T00:52:27.603Z,6.33
2022-11-27T00:54:54.440Z,6.07
2022-11-27T00:57:21.276Z,6.17
2022-11-27T00:59:48.156Z,6.07
2022-11-27T01:02:15.074Z,6.07
2022-11-27T01:04:44.909Z,5.93
2022-11-27T01:07:12.107Z,5.33
2022-11-27T01:09:40.217Z,6.03
2022-11-27T01:12:07.690Z,5.90
2022-11-27T01:14:34.646Z,6.13
2022-11-27T01:17:01.603Z,5.83
2022-11-27T01:19:28.460Z,6.07
2022-11-27T01:21:55.450Z,6.03
2022-11-27T01:24:22.340Z,5.80
2022-11-27T01:26:49.926Z,5.40
2022-11-27T01:29:16.764Z,6.03
2022-11-27T01:31:43.615Z,6.33
2022-11-27T01:34:16.252Z,6.10
2022-11-27T01:36:43.509Z,6.17
2022-11-27T01:39:16.112Z,6.23
2022-11-27T01:41:44.804Z,5.80
2022-11-27T01:44:23.982Z,6.17
2022-11-27T01:46:55.530Z,6.17
2022-11-27T01:49:34.022Z,5.93
2022-11-27T01:52:24.299Z,5.47
2022-11-27T01:54:51.145Z,5.73
2022-11-27T01:57:25.623Z,6.10
2022-11-27T01:59:54.725Z,6.33
2022-11-27T02:02:21.684Z,6.07
2022-11-27T02:04:48.799Z,5.87
2022-11-27T02:07:16.337Z,5.50
2022-11-27T02:09:43.530Z,5.13
2022-11-27T02:12:44.593Z,5.37
2022-11-27T02:15:25.429Z,5.60
2022-11-27T02:18:01.322Z,5.53
2022-11-27T02:20:50.245Z,5.43
2022-11-27T02:23:48.784Z,4.87
2022-11-27T02:26:49.479Z,5.50
2022-11-27T02:29:23.079Z,5.30
2022-11-27T02:32:08.289Z,5.17
2022-11-27T02:34:56.193Z,4.87
2022-11-27T02:37:44.446Z,5.33
2022-11-27T02:40:23.831Z,5.27
2022-11-27T02:42:57.577Z,5.23
2022-11-27T02:45:30.440Z,4.40
2022-11-27T02:47:57.930Z,5.20
2022-11-27T02:50:27.154Z,5.97
2022-11-27T02:52:57.933Z,5.13
2022-11-27T02:55:31.054Z,4.70
2022-11-27T02:57:59.825Z,5.23
2022-11-27T03:00:26.835Z,5.40
2022-11-27T03:02:58.099Z,5.00
2022-11-27T03:05:29.445Z,4.73
2022-11-27T03:08:07.085Z,4.27
2022-11-27T03:10:48.053Z,5.13
2022-11-27T03:13:15.177Z,4.93
2022-11-27T03:16:01.555Z,4.47
2022-11-27T03:18:41.519Z,4.53
2022-11-27T03:21:42.404Z,5.03
2022-11-27T03:24:10.234Z,4.33
2022-11-27T03:26:37.895Z,4.70
2022-11-27T03:29:09.159Z,4.53
2022-11-27T03:31:36.895Z,4.53
2022-11-27T03:34:04.660Z,4.50
2022-11-27T03:36:31.523Z,4.63
2022-11-27T03:38:58.473Z,4.77
2022-11-27T03:41:38.803Z,5.13
2022-11-27T03:44:43.452Z,4.73
2022-11-27T03:47:38.000Z,5.37
2022-11-27T03:50:13.940Z,4.20
2022-11-27T03:52:49.575Z,4.50
2022-11-27T03:55:31.370Z,4.53
2022-11-27T03:58:00.691Z,4.97
2022-11-27T04:00:33.217Z,5.13
2022-11-27T04:03:00.407Z,4.20
2022-11-27T04:05:27.279Z,4.77
2022-11-27T04:07:54.235Z,4.07
2022-11-27T04:10:21.348Z,4.80
2022-11-27T04:12:48.221Z,4.30
2022-11-27T04:15:15.142Z,4.43
2022-11-27T04:17:41.983Z,3.87
2022-11-27T04:20:09.367Z,4.60
2022-11-27T04:22:36.237Z,4.27
2022-11-27T04:25:04.050Z,4.70
2022-11-27T04:27:30.886Z,4.23
2022-11-27T04:29:57.731Z,4.80
2022-11-27T04:32:24.934Z,3.90
2022-11-27T04:34:51.787Z,4.20
2022-11-27T04:37:18.640Z,4.10
2022-11-27T04:39:45.503Z,4.03
2022-11-27T04:42:12.575Z,4.63
2022-11-27T04:44:40.838Z,4.27
2022-11-27T04:47:07.884Z,4.30
2022-11-27T04:49:34.845Z,4.27
2022-11-27T04:52:01.702Z,3.80
2022-11-27T04:54:28.537Z,4.47
2022-11-27T04:56:55.437Z,4.10
2022-11-27T04:59:23.230Z,3.80
2022-11-27T05:01:50.363Z,4.27
2022-11-27T05:04:17.263Z,3.73
2022-11-27T05:06:44.095Z,4.50
2022-11-27T05:09:11.035Z,3.63
2022-11-27T05:11:37.917Z,4.60
2022-11-27T05:14:21.095Z,4.60
2022-11-27T05:16:51.059Z,3.80
2022-11-27T05:19:20.182Z,4.43
2022-11-27T05:21:49.101Z,3.93
2022-11-27T05:24:20.314Z,4.00
2022-11-27T05:26:47.601Z,4.27
2022-11-27T05:29:14.949Z,4.10
2022-11-27T05:31:42.636Z,4.20
2022-11-27T05:34:10.198Z,4.07
2022-11-27T05:36:37.302Z,4.73
2022-11-27T05:39:06.892Z,5.03
2022-11-27T05:41:35.347Z,4.60
2022-11-27T05:44:02.853Z,4.50
2022-11-27T05:46:30.167Z,4.47
2022-11-27T05:48:57.177Z,4.50
2022-11-27T05:51:24.748Z,4.83
2022-11-27T05:53:51.756Z,4.20
2022-11-27T05:56:19.186Z,4.63
2022-11-27T05:58:47.925Z,4.40
2022-11-27T06:01:17.027Z,4.80
2022-11-27T06:03:44.421Z,4.20
2022-11-27T06:06:14.644Z,4.47
2022-11-27T06:08:42.367Z,4.03
2022-11-27T06:11:11.697Z,4.70
2022-11-27T06:13:38.695Z,4.37
2022-11-27T06:16:17.206Z,4.17
2022-11-27T06:18:45.178Z,4.47
2022-11-27T06:21:14.241Z,3.90
2022-11-27T06:23:45.112Z,3.97
2022-11-27T06:26:19.681Z,4.00
2022-11-27T06:28:47.946Z,3.23
2022-11-27T06:31:18.662Z,3.30
2022-11-27T06:33:47.658Z,3.93
2022-11-27T06:36:15.313Z,3.60
2022-11-27T06:38:42.746Z,3.93
2022-11-27T06:41:15.257Z,5.03
2022-11-27T06:43:42.191Z,3.93
2022-11-27T06:46:13.671Z,4.13
2022-11-27T06:48:41.167Z,4.37
2022-11-27T06:51:11.462Z,4.20
2022-11-27T06:53:39.061Z,3.87
2022-11-27T06:56:11.501Z,3.97
2022-11-27T06:58:39.050Z,3.77
2022-11-27T07:01:10.055Z,4.47
2022-11-27T07:03:37.449Z,4.30
2022-11-27T07:06:07.100Z,3.77
2022-11-27T07:08:34.831Z,4.00
2022-11-27T07:11:11.105Z,4.20
2022-11-27T07:13:38.044Z,3.70
2022-11-27T07:16:08.171Z,3.63
2022-11-27T07:18:37.547Z,4.37
2022-11-27T07:21:04.591Z,4.03
2022-11-27T07:23:31.598Z,3.80
2022-11-27T07:25:58.852Z,4.40
2022-11-27T07:28:26.382Z,4.60
2022-11-27T07:30:57.413Z,3.73
2022-11-27T07:33:25.459Z,4.10
2022-11-27T07:36:07.033Z,3.87
2022-11-27T07:38:34.254Z,3.43
2022-11-27T07:41:02.697Z,4.10
2022-11-27T07:43:30.323Z,4.57
2022-11-27T07:45:57.323Z,4.10
2022-11-27T07:48:24.402Z,4.03
2022-11-27T07:50:51.380Z,3.90
2022-11-27T07:53:19.066Z,3.83
2022-11-27T07:55:46.078Z,3.73
2022-11-27T07:58:13.046Z,3.80
2022-11-27T08:00:40.951Z,4.40
2022-11-27T08:03:07.866Z,4.37
2022-11-27T08:05:35.648Z,3.67
2022-11-27T08:08:04.599Z,4.70
2022-11-27T08:10:34.762Z,3.60
2022-11-27T08:13:01.623Z,4.07
2022-11-27T08:15:28.718Z,3.63
2022-11-27T08:17:55.643Z,4.50
2022-11-27T08:20:22.693Z,4.77
2022-11-27T08:22:49.945Z,3.90
2022-11-27T08:25:17.043Z,4.93
2022-11-27T08:27:44.442Z,4.37
2022-11-27T08:30:11.858Z,4.33
2022-11-27T08:32:40.103Z,4.37
2022-11-27T08:35:07.938Z,4.70
2022-11-27T08:37:35.623Z,4.90
2022-11-27T08:40:02.797Z,4.57
2022-11-27T08:42:29.710Z,4.60
2022-11-27T08:44:56.575Z,4.80
2022-11-27T08:47:23.498Z,4.60
2022-11-27T08:49:50.461Z,4.33
2022-11-27T08:52:17.324Z,4.77
2022-11-27T08:54:44.263Z,5.00
2022-11-27T08:57:11.072Z,4.40
2022-11-27T08:59:38.195Z,4.87
2022-11-27T09:02:05.247Z,4.27
2022-11-27T09:04:32.171Z,4.83
2022-11-27T09:06:59.078Z,4.37
2022-11-27T09:09:25.999Z,4.60
2022-11-27T09:11:55.311Z,5.17
2022-11-27T09:14:22.249Z,4.70
2022-11-27T09:16:49.153Z,4.87
2022-11-27T09:19:16.170Z,5.47
2022-11-27T09:21:43.245Z,5.03
2022-11-27T09:24:10.089Z,5.57
2022-11-27T09:26:37.013Z,5.17
2022-11-27T09:29:04.900Z,4.73
2022-11-27T09:31:33.883Z,4.50
2022-11-27T09:34:00.888Z,4.83
2022-11-27T09:36:28.056Z,5.17
2022-11-27T09:38:54.990Z,4.80
2022-11-27T09:41:52.669Z,5.07
2022-11-27T09:44:39.969Z,4.50
2022-11-27T09:47:15.154Z,5.03
2022-11-27T09:49:45.338Z,5.00
2022-11-27T09:52:15.159Z,4.73
2022-11-27T09:54:55.104Z,5.33
2022-11-27T09:57:31.522Z,5.03
2022-11-27T10:00:20.746Z,5.10
2022-11-27T10:02:48.778Z,5.50
2022-11-27T10:05:25.910Z,5.27
2022-11-27T10:08:18.633Z,4.87
2022-11-27T10:10:54.301Z,5.10
2022-11-27T10:13:36.392Z,5.30
2022-11-27T10:16:29.687Z,4.83
2022-11-27T10:19:18.266Z,5.17
2022-11-27T10:22:05.306Z,5.33
2022-11-27T10:24:43.726Z,5.30
2022-11-27T10:27:39.219Z,4.90
2022-11-27T10:30:19.091Z,4.70
2022-11-27T10:32:55.804Z,4.90
2022-11-27T10:35:25.700Z,4.70
2022-11-27T10:38:13.619Z,5.30
2022-11-27T10:40:59.767Z,4.30
2022-11-27T10:43:26.861Z,5.30
2022-11-27T10:46:20.201Z,4.83
2022-11-27T10:48:47.272Z,4.60
2022-11-27T10:51:25.966Z,4.83
2022-11-27T10:53:54.677Z,5.03
2022-11-27T10:56:46.175Z,4.80
2022-11-27T10:59:34.900Z,4.87
2022-11-27T11:02:03.482Z,5.17
2022-11-27T11:04:37.915Z,4.77
2022-11-27T11:07:26.941Z,4.97
2022-11-27T11:09:55.011Z,4.53
2022-11-27T11:12:23.850Z,5.00
2022-11-27T11:14:59.936Z,4.93
2022-11-27T11:17:40.890Z,4.87
2022-11-27T11:20:25.305Z,5.00
2022-11-27T11:22:52.353Z,5.10
2022-11-27T11:25:21.579Z,5.20
2022-11-27T11:27:50.616Z,5.03
2022-11-27T11:30:28.606Z,4.77
2022-11-27T11:33:03.944Z,5.40
2022-11-27T11:35:36.009Z,4.67
2022-11-27T11:38:17.103Z,4.60
2022-11-27T11:40:56.666Z,4.90
2022-11-27T11:43:27.086Z,4.70
2022-11-27T11:45:54.003Z,4.50
2022-11-27T11:48:28.107Z,4.43
2022-11-27T11:51:11.000Z,4.70
2022-11-27T11:53:44.486Z,4.90
2022-11-27T11:56:37.454Z,4.70
2022-11-27T11:59:11.087Z,4.50
2022-11-27T12:01:56.637Z,4.80
2022-11-27T12:05:03.581Z,4.90
2022-11-27T12:07:52.058Z,5.80
2022-11-27T12:10:31.016Z,5.50
2022-11-27T12:13:13.317Z,5.00
2022-11-27T12:16:07.601Z,4.87
2022-11-27T12:19:04.485Z,5.27
2022-11-27T12:21:49.877Z,5.90
2022-11-27T12:24:28.979Z,4.70
2022-11-27T12:27:12.828Z,6.63
2022-11-27T12:29:45.499Z,5.83
2022-11-27T12:32:37.441Z,5.93
2022-11-27T12:35:16.149Z,5.07
2022-11-27T12:37:48.803Z,4.77
2022-11-27T12:40:24.463Z,5.70
2022-11-27T12:43:01.842Z,5.30
2022-11-27T12:45:45.181Z,4.87
2022-11-27T12:48:21.451Z,4.97
2022-11-27T12:51:10.861Z,5.07
2022-11-27T12:53:52.244Z,5.30
2022-11-27T12:56:26.566Z,6.20
2022-11-27T12:59:25.498Z,5.37
2022-11-27T13:02:24.674Z,4.93
2022-11-27T13:05:07.642Z,7.27
2022-11-27T13:07:40.501Z,6.93
2022-11-27T13:10:39.134Z,6.70
2022-11-27T13:13:34.232Z,6.40
2022-11-27T13:16:06.516Z,5.57
2022-11-27T13:18:38.114Z,5.83
2022-11-27T13:21:12.074Z,5.60
2022-11-27T13:23:39.030Z,5.80
2022-11-27T13:26:14.921Z,5.57
2022-11-27T13:28:45.490Z,5.83
2022-11-27T13:31:22.020Z,5.40
2022-11-27T13:33:50.721Z,4.70
2022-11-27T13:36:30.017Z,5.83
2022-11-27T13:39:01.648Z,6.10
2022-11-27T13:41:40.320Z,6.43
2022-11-27T13:44:43.727Z,7.10
2022-11-27T13:47:19.198Z,6.30
2022-11-27T13:49:48.066Z,6.73
2022-11-27T13:52:18.930Z,6.93
2022-11-27T13:54:56.278Z,8.13
2022-11-27T13:57:24.357Z,6.50
2022-11-27T13:59:57.863Z,7.60
2022-11-27T14:02:26.238Z,7.70
2022-11-27T14:04:56.304Z,6.97
2022-11-27T14:07:34.623Z,7.47
2022-11-27T14:10:23.655Z,6.73
2022-11-27T14:12:59.565Z,6.50
2022-11-27T14:15:28.407Z,7.53
2022-11-27T14:18:09.522Z,7.77
2022-11-27T14:20:46.446Z,8.00
2022-11-27T14:23:13.871Z,7.53
2022-11-27T14:25:41.444Z,7.17
2022-11-27T14:28:26.368Z,7.73
2022-11-27T14:30:59.409Z,7.67
2022-11-27T14:33:53.515Z,7.30
2022-11-27T14:36:30.737Z,7.87
2022-11-27T14:38:59.091Z,7.17
2022-11-27T14:41:27.729Z,7.57
2022-11-27T14:44:21.108Z,7.27
2022-11-27T14:46:48.616Z,7.87
2022-11-27T14:49:20.669Z,8.50
2022-11-27T14:51:50.669Z,7.53
2022-11-27T14:54:25.955Z,7.90
2022-11-27T14:56:53.418Z,6.93
2022-11-27T14:59:25.002Z,7.77
2022-11-27T15:02:29.372Z,8.10
2022-11-27T15:05:04.328Z,8.63
2022-11-27T15:07:36.579Z,8.47
2022-11-27T15:10:25.307Z,9.00
2022-11-27T15:12:52.365Z,8.07
2022-11-27T15:15:23.483Z,9.20
2022-11-27T15:17:54.350Z,9.07
2022-11-27T15:20:31.890Z,8.90
2022-11-27T15:23:00.746Z,8.37
2022-11-27T15:25:42.538Z,8.50
2022-11-27T15:28:42.241Z,10.03
2022-11-27T15:31:33.393Z,9.40
2022-11-27T15:34:30.422Z,8.80
2022-11-27T15:37:01.732Z,8.47
2022-11-27T15:39:46.687Z,8.13
2022-11-27T15:42:14.716Z,8.57
2022-11-27T15:44:41.886Z,8.27
2022-11-27T15:47:22.787Z,8.33
2022-11-27T15:49:50.057Z,9.00
2022-11-27T15:52:16.969Z,8.70
2022-11-27T15:54:44.172Z,8.10
2022-11-27T15:57:11.789Z,8.50
2022-11-27T15:59:39.155Z,7.77
2022-11-27T16:02:07.458Z,7.23
2022-11-27T16:04:34.566Z,8.23
2022-11-27T16:07:01.431Z,8.70
2022-11-27T16:09:28.663Z,8.47
2022-11-27T16:11:55.602Z,8.40
2022-11-27T16:14:22.674Z,8.77
2022-11-27T16:16:50.767Z,9.87
2022-11-27T16:19:17.768Z,8.40
2022-11-27T16:21:44.831Z,9.57
2022-11-27T16:24:14.116Z,8.53
2022-11-27T16:26:41.706Z,7.97
2022-11-27T16:29:09.699Z,8.00
2022-11-27T16:31:37.071Z,9.10
2022-11-27T16:34:05.874Z,8.77
2022-11-27T16:36:33.144Z,8.43
2022-11-27T16:39:00.095Z,8.20
2022-11-27T16:41:27.233Z,8.20
2022-11-27T16:43:56.632Z,7.90
2022-11-27T16:46:30.759Z,8.53
2022-11-27T16:48:59.145Z,9.00
2022-11-27T16:51:32.650Z,8.90
2022-11-27T16:54:05.323Z,8.17
2022-11-27T16:56:33.654Z,8.33
2022-11-27T16:59:03.380Z,9.20
2022-11-27T17:01:36.221Z,8.77
2022-11-27T17:04:09.201Z,9.57
2022-11-27T17:06:38.438Z,9.37
2022-11-27T17:09:07.258Z,9.20
2022-11-27T17:11:36.238Z,8.77
2022-11-27T17:14:08.087Z,9.37
2022-11-27T17:16:36.117Z,9.40
2022-11-27T17:19:03.443Z,9.20
2022-11-27T17:21:32.601Z,8.90
2022-11-27T17:24:02.474Z,8.33
2022-11-27T17:26:30.828Z,8.80
2022-11-27T17:28:59.601Z,9.50
2022-11-27T17:31:28.417Z,9.00
2022-11-27T17:33:56.948Z,9.43
2022-11-27T17:36:25.018Z,8.77
2022-11-27T17:38:55.103Z,8.37
2022-11-27T17:41:22.522Z,8.80
2022-11-27T17:43:50.159Z,9.57
2022-11-27T17:46:19.541Z,8.40
2022-11-27T17:48:46.605Z,8.73
2022-11-27T17:51:13.755Z,8.40
2022-11-27T17:53:40.723Z,8.97
2022-11-27T17:56:11.122Z,8.60
2022-11-27T17:58:38.754Z,8.43
2022-11-27T18:01:07.756Z,9.07
2022-11-27T18:03:34.866Z,8.43
2022-11-27T18:06:07.257Z,9.43
2022-11-27T18:08:34.346Z,8.60
2022-11-27T18:11:14.160Z,9.57
2022-11-27T18:13:41.238Z,9.93
2022-11-27T18:16:20.547Z,8.47
2022-11-27T18:18:49.033Z,8.63
2022-11-27T18:21:18.904Z,8.43
2022-11-27T18:24:21.526Z,7.73
2022-11-27T18:27:06.686Z,8.93
2022-11-27T18:29:23.521Z,8.87
2022-11-27T18:31:51.893Z,9.03
2022-11-27T18:34:19.046Z,8.50
2022-11-27T18:36:49.079Z,8.60
2022-11-27T18:39:16.016Z,7.67
2022-11-27T18:41:42.891Z,8.00
2022-11-27T18:44:09.883Z,9.10
2022-11-27T18:46:37.115Z,8.40
2022-11-27T18:49:04.391Z,9.07
2022-11-27T18:51:31.517Z,8.83
2022-11-27T18:53:58.533Z,9.53
2022-11-27T18:56:29.518Z,7.83
2022-11-27T18:59:02.053Z,8.07
2022-11-27T19:01:35.573Z,8.93
2022-11-27T19:04:07.560Z,8.20
2022-11-27T19:06:36.395Z,7.73
2022-11-27T19:09:03.978Z,7.53
2022-11-27T19:11:31.158Z,7.47
2022-11-27T19:13:58.492Z,8.07
2022-11-27T19:16:31.656Z,7.90
2022-11-27T19:19:00.313Z,7.83
2022-11-27T19:21:31.275Z,7.33
2022-11-27T19:24:00.365Z,7.50
2022-11-27T19:26:33.337Z,8.83
2022-11-27T19:29:03.716Z,8.63
2022-11-27T19:31:33.348Z,8.57
2022-11-27T19:34:02.316Z,8.10
2022-11-27T19:36:31.759Z,7.63
2022-11-27T19:39:01.541Z,8.37
2022-11-27T19:41:29.487Z,7.73
2022-11-27T19:43:56.831Z,8.63
2022-11-27T19:46:29.026Z,8.10
2022-11-27T19:49:01.324Z,8.63
2022-11-27T19:51:31.544Z,8.70
2022-11-27T19:54:01.804Z,9.80
2022-11-27T19:56:33.669Z,9.07
2022-11-27T19:59:01.368Z,8.67
2022-11-27T20:01:28.468Z,8.90
2022-11-27T20:03:55.555Z,8.17
2022-11-27T20:06:25.767Z,8.77
2022-11-27T20:08:54.359Z,9.33
2022-11-27T20:11:24.171Z,10.43
2022-11-27T20:13:51.286Z,9.47
2022-11-27T20:16:20.749Z,10.87
2022-11-27T20:18:48.169Z,11.13
2022-11-27T20:21:23.642Z,10.30
2022-11-27T20:23:52.038Z,11.07
2022-11-27T20:26:22.420Z,10.97
2022-11-27T20:28:50.485Z,10.63
2022-11-27T20:31:24.262Z,11.00
2022-11-27T20:33:52.865Z,9.93
2022-11-27T20:36:21.575Z,10.77
2022-11-27T20:38:52.387Z,12.37
2022-11-27T20:41:26.310Z,11.73
2022-11-27T20:43:58.951Z,11.67
2022-11-27T20:46:26.786Z,11.03
2022-11-27T20:48:55.177Z,13.00
2022-11-27T20:51:27.648Z,12.67
2022-11-27T20:53:56.587Z,12.67
2022-11-27T20:56:23.568Z,12.63
2022-11-27T20:58:50.467Z,12.27
2022-11-27T21:01:20.177Z,12.37
2022-11-27T21:03:48.829Z,13.23
2022-11-27T21:06:17.731Z,13.03
2022-11-27T21:08:44.887Z,12.57
2022-11-27T21:11:25.296Z,13.23
2022-11-27T21:13:56.906Z,12.73
2022-11-27T21:16:26.033Z,13.17
2022-11-27T21:18:53.989Z,12.20
2022-11-27T21:21:20.891Z,12.47
2022-11-27T21:23:47.771Z,13.13
2022-11-27T21:26:16.329Z,12.90
2022-11-27T21:28:43.581Z,12.50
2022-11-27T21:31:19.347Z,11.90
2022-11-27T21:33:58.088Z,11.40
2022-11-27T21:36:28.789Z,12.37
2022-11-27T21:38:57.763Z,11.40
2022-11-27T21:41:24.933Z,12.30
2022-11-27T21:43:55.682Z,12.20
2022-11-27T21:46:22.951Z,11.97
2022-11-27T21:48:52.740Z,11.73
2022-11-27T21:51:21.496Z,11.83
2022-11-27T21:53:51.312Z,12.10
2022-11-27T21:56:20.859Z,12.93
2022-11-27T21:58:47.814Z,13.47
2022-11-27T22:01:18.330Z,12.90
2022-11-27T22:03:47.723Z,13.43
2022-11-27T22:06:18.363Z,12.73
2022-11-27T22:08:49.868Z,13.07
2022-11-27T22:11:23.518Z,12.73
2022-11-27T22:13:51.471Z,13.40
2022-11-27T22:16:23.255Z,12.43
2022-11-27T22:18:50.442Z,13.50
2022-11-27T22:21:18.225Z,13.20
2022-11-27T22:23:48.454Z,13.63
2022-11-27T22:26:23.085Z,13.70
2022-11-27T22:28:51.248Z,13.27
2022-11-27T22:31:30.226Z,14.33
2022-11-27T22:33:58.311Z,15.27
2022-11-27T22:36:31.331Z,15.87
2022-11-27T22:39:01.699Z,15.43
2022-11-27T22:41:35.329Z,15.97
2022-11-27T22:44:14.050Z,15.03
2022-11-27T22:46:44.150Z,15.37
2022-11-27T22:49:15.392Z,14.77
2022-11-27T22:51:42.841Z,14.77
2022-11-27T22:54:13.236Z,15.03
2022-11-27T22:56:40.246Z,15.43
2022-11-27T23:01:55.157Z,14.50
2022-11-27T23:04:23.121Z,15.07
2022-11-27T23:06:50.011Z,13.80
2022-11-27T23:09:20.014Z,13.67
2022-11-27T23:11:49.167Z,12.53
2022-11-27T23:14:19.537Z,12.90
2022-11-27T23:16:49.575Z,12.87
2022-11-27T23:19:17.643Z,12.00
2022-11-27T23:21:50.735Z,11.30
2022-11-27T23:24:21.014Z,11.80
2022-11-27T23:26:50.986Z,11.10
2022-11-27T23:29:21.007Z,10.40
2022-11-27T23:31:50.132Z,10.40
2022-11-27T23:34:19.097Z,10.60
2022-11-27T23:36:49.168Z,9.10
2022-11-27T23:39:16.260Z,9.53
2022-11-27T23:41:49.286Z,9.27
2022-11-27T23:44:19.325Z,10.13
2022-11-27T23:46:48.132Z,10.33
2022-11-27T23:49:19.066Z,9.77
2022-11-27T23:51:49.258Z,9.47
2022-11-27T23:54:19.275Z,9.07
2022-11-27T23:56:51.683Z,9.20
2022-11-27T23:59:21.686Z,8.97
